Time;durP1;ratioP1;P1;durP2;ratioP2;P2;SDS_P1;SDS_P2;PMS_P1;PMS_P2;Temp;Humidity;BMP_temperature;BMP_pressure;BME280_temperature;BME280_humidity;BME280_pressure;Samples;Min_cycle;Max_cycle;Signal;HPM_P1;HPM_P2
2024/01/31 00:02:13;;;;;;;7.68;2.10;;;;;;;;;;4987021;28;20125;-69
2024/01/31 00:04:39;;;;;;;8.80;1.98;;;;;;;;;;5021903;28;20461;-69
2024/01/31 00:07:05;;;;;;;7.78;2.03;;;;;;;;;;4984550;28;20057;-70
2024/01/31 00:09:32;;;;;;;7.10;2.13;;;;;;;;;;4982853;28;20499;-70
2024/01/31 00:11:58;;;;;;;8.35;2.20;;;;;;;;;;4989215;28;20057;-70
2024/01/31 00:14:24;;;;;;;7.60;2.50;;;;;;;;;;4988702;28;20467;-69
2024/01/31 00:16:51;;;;;;;5.03;2.20;;;;;;;;;;4986485;28;20513;-69
2024/01/31 00:19:17;;;;;;;6.63;2.08;;;;;;;;;;4986030;28;20050;-69
2024/01/31 00:21:43;;;;;;;9.48;2.47;;;;;;;;;;5016513;28;20069;-68
2024/01/31 00:24:12;;;;;;;8.55;2.22;;;;;;;;;;5024051;28;20061;-69
2024/01/31 00:26:38;;;;;;;10.80;2.50;;;;;;;;;;4990410;28;20043;-70
2024/01/31 00:29:04;;;;;;;11.27;2.25;;;;;;;;;;4996770;28;20049;-69
2024/01/31 00:31:30;;;;;;;8.48;2.20;;;;;;;;;;4993142;28;20050;-69
2024/01/31 00:33:56;;;;;;;6.53;2.08;;;;;;;;;;5025113;28;20090;-69
2024/01/31 00:36:22;;;;;;;12.02;3.00;;;;;;;;;;5016051;28;20619;-69
2024/01/31 00:38:49;;;;;;;7.30;2.25;;;;;;;;;;4989519;28;20318;-69
2024/01/31 00:41:15;;;;;;;9.40;2.28;;;;;;;;;;5021843;28;20072;-69
2024/01/31 00:43:41;;;;;;;7.30;2.40;;;;;;;;;;4985014;28;20050;-70
2024/01/31 00:46:07;;;;;;;5.75;2.13;;;;;;;;;;5014335;28;20053;-69
2024/01/31 00:48:33;;;;;;;7.85;2.58;;;;;;;;;;4982291;28;20050;-69
2024/01/31 00:51:02;;;;;;;7.82;2.33;;;;;;;;;;5019387;28;20042;-69
2024/01/31 00:53:30;;;;;;;6.82;2.17;;;;;;;;;;4988911;28;20053;-69
2024/01/31 00:55:56;;;;;;;7.28;2.40;;;;;;;;;;4985108;28;20060;-69
2024/01/31 00:58:22;;;;;;;5.53;2.03;;;;;;;;;;5015972;28;20046;-69
2024/01/31 01:00:48;;;;;;;11.57;1.90;;;;;;;;;;4987166;28;20061;-70
2024/01/31 01:03:14;;;;;;;6.65;2.05;;;;;;;;;;4985934;28;20046;-69
2024/01/31 01:05:40;;;;;;;4.45;1.95;;;;;;;;;;5025386;28;20089;-69
2024/01/31 01:08:06;;;;;;;6.30;1.95;;;;;;;;;;4992883;28;20077;-70
2024/01/31 01:10:32;;;;;;;5.07;2.03;;;;;;;;;;4991879;28;20089;-69
2024/01/31 01:12:59;;;;;;;3.72;1.77;;;;;;;;;;4986181;28;20326;-69
2024/01/31 01:15:25;;;;;;;5.75;1.75;;;;;;;;;;4995250;28;20062;-69
2024/01/31 01:17:51;;;;;;;4.05;1.90;;;;;;;;;;4983858;28;20081;-70
2024/01/31 01:20:18;;;;;;;5.15;2.15;;;;;;;;;;5017076;28;20077;-69
2024/01/31 01:22:45;;;;;;;6.32;2.00;;;;;;;;;;4984953;28;20050;-69
2024/01/31 01:25:11;;;;;;;3.65;1.83;;;;;;;;;;4990114;28;20058;-70
2024/01/31 01:27:37;;;;;;;5.35;1.85;;;;;;;;;;4981098;28;20450;-70
2024/01/31 01:30:03;;;;;;;8.32;1.92;;;;;;;;;;4985608;28;20068;-70
2024/01/31 01:32:29;;;;;;;3.72;1.90;;;;;;;;;;4984013;28;20156;-69
2024/01/31 01:34:55;;;;;;;3.70;2.00;;;;;;;;;;5021217;28;20089;-69
2024/01/31 01:37:21;;;;;;;3.67;2.13;;;;;;;;;;4990585;28;20046;-69
2024/01/31 01:39:47;;;;;;;2.75;1.70;;;;;;;;;;5022391;28;20046;-69
2024/01/31 01:42:13;;;;;;;8.70;2.38;;;;;;;;;;4984223;28;20398;-69
2024/01/31 01:44:44;;;;;;;6.43;1.80;;;;;;;;;;5012648;28;20046;-69
2024/01/31 01:47:11;;;;;;;7.80;1.90;;;;;;;;;;4986723;28;20858;-70
2024/01/31 01:49:37;;;;;;;5.72;1.80;;;;;;;;;;4986077;28;20105;-69
2024/01/31 01:52:04;;;;;;;1.50;1.40;;;;;;;;;;5018524;28;20046;-69
2024/01/31 01:54:31;;;;;;;3.35;1.73;;;;;;;;;;4995240;28;20076;-70
2024/01/31 01:56:57;;;;;;;5.07;1.90;;;;;;;;;;5022877;28;20073;-69
2024/01/31 01:59:23;;;;;;;2.85;1.80;;;;;;;;;;4994482;28;20073;-69
2024/01/31 02:01:49;;;;;;;5.18;1.80;;;;;;;;;;5004420;28;20466;-69
2024/01/31 02:04:18;;;;;;;3.10;1.73;;;;;;;;;;4995349;28;20061;-69
2024/01/31 02:06:44;;;;;;;5.57;2.00;;;;;;;;;;4996214;28;20035;-69
2024/01/31 02:09:10;;;;;;;3.20;1.70;;;;;;;;;;5018019;28;20185;-69
2024/01/31 02:11:36;;;;;;;4.53;1.80;;;;;;;;;;4989535;28;20047;-69
2024/01/31 02:14:02;;;;;;;3.42;1.85;;;;;;;;;;4989640;28;20058;-70
2024/01/31 02:16:28;;;;;;;4.95;1.60;;;;;;;;;;5023233;28;20053;-69
2024/01/31 02:18:54;;;;;;;4.95;1.52;;;;;;;;;;5000977;28;20365;-69
2024/01/31 02:21:22;;;;;;;8.43;2.10;;;;;;;;;;4992486;28;20121;-69
2024/01/31 02:23:48;;;;;;;4.05;1.80;;;;;;;;;;5000104;28;20054;-69
2024/01/31 02:26:14;;;;;;;2.65;1.80;;;;;;;;;;5025502;28;20410;-69
2024/01/31 02:28:40;;;;;;;5.53;1.90;;;;;;;;;;4981223;28;20100;-69
2024/01/31 02:31:06;;;;;;;4.72;2.05;;;;;;;;;;5025505;28;20046;-68
2024/01/31 02:33:32;;;;;;;4.22;1.58;;;;;;;;;;4994418;28;20120;-69
2024/01/31 02:35:58;;;;;;;3.28;1.77;;;;;;;;;;5024481;28;20498;-69
2024/01/31 02:38:24;;;;;;;6.85;2.10;;;;;;;;;;4991113;28;20042;-70
2024/01/31 02:40:50;;;;;;;6.18;2.08;;;;;;;;;;4992464;28;20054;-69
2024/01/31 02:43:16;;;;;;;4.38;1.80;;;;;;;;;;4991880;28;20108;-69
2024/01/31 02:45:42;;;;;;;6.20;2.10;;;;;;;;;;4990682;28;20058;-69
2024/01/31 02:48:08;;;;;;;4.90;2.33;;;;;;;;;;5011960;28;20050;-69
2024/01/31 02:50:34;;;;;;;5.57;2.00;;;;;;;;;;5011570;28;20052;-69
2024/01/31 02:53:01;;;;;;;8.48;2.00;;;;;;;;;;5006372;28;20043;-69
2024/01/31 02:55:27;;;;;;;7.65;1.90;;;;;;;;;;4972759;28;20082;-69
2024/01/31 02:57:53;;;;;;;8.05;2.50;;;;;;;;;;4993047;28;20600;-69
2024/01/31 03:00:19;;;;;;;5.22;2.10;;;;;;;;;;4985981;28;20125;-70
2024/01/31 03:02:45;;;;;;;7.18;1.92;;;;;;;;;;5002164;28;20057;-69
2024/01/31 03:05:11;;;;;;;6.75;3.03;;;;;;;;;;5008164;28;20137;-69
2024/01/31 03:07:37;;;;;;;6.30;2.10;;;;;;;;;;4988472;28;20050;-70
2024/01/31 03:10:06;;;;;;;4.45;1.88;;;;;;;;;;5024659;28;20069;-69
2024/01/31 03:12:32;;;;;;;5.55;2.05;;;;;;;;;;5000537;28;20093;-70
2024/01/31 03:14:58;;;;;;;2.67;1.85;;;;;;;;;;4996518;28;20080;-69
2024/01/31 03:17:24;;;;;;;6.97;2.25;;;;;;;;;;4991518;28;20046;-70
2024/01/31 03:19:50;;;;;;;7.07;2.40;;;;;;;;;;4991662;28;20050;-69
2024/01/31 03:22:16;;;;;;;12.27;2.63;;;;;;;;;;4982455;28;20051;-69
2024/01/31 03:24:42;;;;;;;12.27;2.40;;;;;;;;;;4993262;28;20414;-69
2024/01/31 03:27:08;;;;;;;12.55;2.97;;;;;;;;;;4992947;28;20057;-69
2024/01/31 03:29:34;;;;;;;11.20;2.70;;;;;;;;;;4986618;28;20049;-69
2024/01/31 03:32:00;;;;;;;7.75;2.70;;;;;;;;;;4991025;28;20050;-69
2024/01/31 03:34:26;;;;;;;12.55;3.53;;;;;;;;;;5026007;28;20085;-69
2024/01/31 03:36:52;;;;;;;10.50;2.72;;;;;;;;;;4985835;28;20136;-69
2024/01/31 03:39:19;;;;;;;11.07;2.72;;;;;;;;;;4996312;28;20050;-70
2024/01/31 03:41:45;;;;;;;5.43;2.47;;;;;;;;;;4989446;28;20043;-70
2024/01/31 03:44:13;;;;;;;12.18;2.67;;;;;;;;;;5002409;28;20050;-69
2024/01/31 03:46:39;;;;;;;9.52;3.10;;;;;;;;;;4988057;28;20454;-70
2024/01/31 03:49:05;;;;;;;8.10;2.40;;;;;;;;;;5001074;28;20050;-69
2024/01/31 03:51:31;;;;;;;8.65;3.13;;;;;;;;;;4988355;28;20054;-70
2024/01/31 03:53:57;;;;;;;9.75;2.70;;;;;;;;;;5024104;28;20043;-70
2024/01/31 03:56:23;;;;;;;7.22;2.97;;;;;;;;;;4989150;28;20042;-69
2024/01/31 03:58:49;;;;;;;10.32;2.50;;;;;;;;;;4994168;28;20057;-69
2024/01/31 04:01:16;;;;;;;8.13;2.53;;;;;;;;;;4990202;28;20097;-69
2024/01/31 04:03:43;;;;;;;7.55;2.40;;;;;;;;;;4993780;28;20043;-69
2024/01/31 04:06:09;;;;;;;7.63;3.20;;;;;;;;;;4992189;28;20050;-70
2024/01/31 04:08:35;;;;;;;6.07;2.42;;;;;;;;;;4994122;28;20092;-70
2024/01/31 04:11:02;;;;;;;8.88;2.70;;;;;;;;;;4985570;28;20047;-69
2024/01/31 04:13:28;;;;;;;8.52;2.75;;;;;;;;;;4994719;28;20055;-70
2024/01/31 04:15:54;;;;;;;9.98;2.60;;;;;;;;;;4987658;28;20054;-70
2024/01/31 04:18:20;;;;;;;9.55;2.78;;;;;;;;;;4991685;28;20062;-69
2024/01/31 04:20:46;;;;;;;12.35;3.42;;;;;;;;;;4990951;28;20050;-69
2024/01/31 04:23:13;;;;;;;8.35;2.85;;;;;;;;;;4993262;28;20125;-70
2024/01/31 04:25:39;;;;;;;14.07;2.75;;;;;;;;;;4988139;28;20066;-69
2024/01/31 04:28:05;;;;;;;10.50;2.40;;;;;;;;;;4997397;28;20046;-69
2024/01/31 04:30:31;;;;;;;8.30;2.47;;;;;;;;;;4998252;28;20056;-70
2024/01/31 04:33:01;;;;;;;9.88;2.50;;;;;;;;;;4994291;28;20042;-69
2024/01/31 04:35:27;;;;;;;5.07;2.17;;;;;;;;;;4999325;28;20046;-69
2024/01/31 04:37:53;;;;;;;10.18;2.60;;;;;;;;;;4995152;28;20042;-69
2024/01/31 04:40:19;;;;;;;7.47;2.40;;;;;;;;;;4996463;28;20406;-69
2024/01/31 04:42:47;;;;;;;8.30;2.22;;;;;;;;;;5029513;28;20050;-69
2024/01/31 04:45:13;;;;;;;10.48;2.38;;;;;;;;;;4985480;28;20053;-69
2024/01/31 04:47:41;;;;;;;7.57;2.35;;;;;;;;;;4986696;28;20198;-69
2024/01/31 04:50:07;;;;;;;11.88;2.70;;;;;;;;;;5013537;28;20079;-69
2024/01/31 04:52:33;;;;;;;10.13;2.55;;;;;;;;;;5021114;28;20088;-69
2024/01/31 04:54:59;;;;;;;6.72;2.30;;;;;;;;;;5015136;28;20046;-69
2024/01/31 04:57:25;;;;;;;11.65;3.15;;;;;;;;;;4978411;28;20050;-69
2024/01/31 04:59:51;;;;;;;8.45;2.30;;;;;;;;;;4983698;28;20491;-69
2024/01/31 05:02:17;;;;;;;10.70;2.95;;;;;;;;;;5016843;28;20053;-69
2024/01/31 05:04:43;;;;;;;10.65;2.10;;;;;;;;;;5014988;28;20046;-69
2024/01/31 05:07:09;;;;;;;7.28;3.10;;;;;;;;;;4991755;28;20046;-69
2024/01/31 05:09:35;;;;;;;5.13;2.20;;;;;;;;;;4987694;28;20073;-69
2024/01/31 05:12:01;;;;;;;5.53;2.30;;;;;;;;;;5019992;28;20467;-69
2024/01/31 05:14:27;;;;;;;7.70;3.05;;;;;;;;;;4988088;28;20049;-69
2024/01/31 05:16:53;;;;;;;5.97;2.38;;;;;;;;;;4989318;28;20069;-69
2024/01/31 05:19:19;;;;;;;7.72;2.88;;;;;;;;;;4987154;28;20124;-69
2024/01/31 05:21:45;;;;;;;7.03;2.83;;;;;;;;;;5013564;28;20181;-69
2024/01/31 05:24:12;;;;;;;11.85;2.35;;;;;;;;;;5013342;28;20585;-69
2024/01/31 05:26:41;;;;;;;5.45;2.30;;;;;;;;;;4984382;28;20112;-69
2024/01/31 05:29:07;;;;;;;8.90;2.60;;;;;;;;;;5015138;28;20046;-69
2024/01/31 05:31:33;;;;;;;7.25;2.60;;;;;;;;;;4988577;28;20534;-70
2024/01/31 05:33:59;;;;;;;6.03;2.35;;;;;;;;;;5021550;28;20125;-69
2024/01/31 05:36:25;;;;;;;6.45;2.30;;;;;;;;;;4987603;28;20252;-69
2024/01/31 05:38:51;;;;;;;8.23;2.30;;;;;;;;;;5018565;28;20137;-69
2024/01/31 05:41:17;;;;;;;4.65;2.38;;;;;;;;;;4992404;28;20050;-69
2024/01/31 05:43:43;;;;;;;5.88;2.40;;;;;;;;;;4984504;28;20046;-69
2024/01/31 05:46:09;;;;;;;7.80;2.70;;;;;;;;;;5023526;28;20049;-69
2024/01/31 05:48:36;;;;;;;8.48;2.40;;;;;;;;;;4986285;28;20047;-69
2024/01/31 05:51:02;;;;;;;7.05;2.28;;;;;;;;;;4992404;28;20038;-69
2024/01/31 05:53:28;;;;;;;7.72;2.10;;;;;;;;;;4988304;28;20046;-69
2024/01/31 05:55:54;;;;;;;8.13;2.60;;;;;;;;;;5019509;28;20085;-69
2024/01/31 05:58:23;;;;;;;6.85;2.50;;;;;;;;;;4994185;28;20050;-69
2024/01/31 06:00:49;;;;;;;7.60;2.33;;;;;;;;;;4994942;28;20068;-69
2024/01/31 06:03:15;;;;;;;4.25;1.95;;;;;;;;;;4991392;28;20096;-69
2024/01/31 06:05:42;;;;;;;5.63;2.15;;;;;;;;;;4991936;28;20052;-69
2024/01/31 06:08:08;;;;;;;6.82;2.20;;;;;;;;;;4990807;28;20049;-69
2024/01/31 06:10:34;;;;;;;5.25;2.58;;;;;;;;;;4988970;28;20046;-69
2024/01/31 06:13:00;;;;;;;5.80;2.10;;;;;;;;;;5020866;28;20057;-69
2024/01/31 06:15:26;;;;;;;4.40;2.03;;;;;;;;;;5020039;28;22044;-69
2024/01/31 06:17:52;;;;;;;6.72;2.22;;;;;;;;;;4996819;28;20112;-69
2024/01/31 06:20:21;;;;;;;6.05;2.50;;;;;;;;;;4990258;28;20053;-70
2024/01/31 06:22:47;;;;;;;5.43;2.70;;;;;;;;;;5015892;28;20463;-69
2024/01/31 06:25:13;;;;;;;3.08;2.33;;;;;;;;;;4994193;28;20406;-69
2024/01/31 06:27:39;;;;;;;4.95;2.30;;;;;;;;;;4990566;28;20442;-69
2024/01/31 06:30:06;;;;;;;7.78;2.40;;;;;;;;;;4992264;28;20190;-70
2024/01/31 06:32:34;;;;;;;5.20;2.60;;;;;;;;;;4990083;28;20043;-69
2024/01/31 06:35:00;;;;;;;7.88;2.90;;;;;;;;;;5022678;28;20058;-69
2024/01/31 06:37:27;;;;;;;7.10;2.80;;;;;;;;;;4990878;28;20056;-69
2024/01/31 06:39:54;;;;;;;6.63;3.70;;;;;;;;;;5021021;28;20487;-69
2024/01/31 06:42:20;;;;;;;10.38;3.13;;;;;;;;;;5017979;28;20478;-69
2024/01/31 06:44:46;;;;;;;5.13;3.28;;;;;;;;;;4987592;28;20054;-69
2024/01/31 06:47:12;;;;;;;7.38;3.55;;;;;;;;;;4993976;28;20056;-69
2024/01/31 06:49:38;;;;;;;5.30;3.80;;;;;;;;;;5018730;28;20049;-69
2024/01/31 06:52:06;;;;;;;5.68;3.65;;;;;;;;;;4990113;28;20051;-68
2024/01/31 06:54:32;;;;;;;4.82;3.58;;;;;;;;;;4990762;28;20052;-69
2024/01/31 06:56:58;;;;;;;6.55;3.70;;;;;;;;;;4978139;28;20135;-69
2024/01/31 06:59:24;;;;;;;7.40;4.20;;;;;;;;;;4990589;28;20106;-69
2024/01/31 07:01:50;;;;;;;6.35;4.00;;;;;;;;;;5017788;28;20052;-69
2024/01/31 07:04:16;;;;;;;8.63;3.83;;;;;;;;;;5018240;28;20827;-69
2024/01/31 07:06:42;;;;;;;4.10;3.70;;;;;;;;;;4990865;28;20042;-69
2024/01/31 07:09:08;;;;;;;9.88;4.20;;;;;;;;;;5024145;28;20044;-69
2024/01/31 07:11:34;;;;;;;7.57;4.13;;;;;;;;;;5020686;28;20050;-69
2024/01/31 07:14:00;;;;;;;7.40;4.57;;;;;;;;;;5019845;28;20058;-69
2024/01/31 07:16:27;;;;;;;6.57;4.60;;;;;;;;;;4987283;28;20041;-69
2024/01/31 07:18:54;;;;;;;7.97;4.32;;;;;;;;;;4984695;28;20125;-69
2024/01/31 07:21:25;;;;;;;7.15;4.25;;;;;;;;;;5021727;28;20109;-69
2024/01/31 07:23:51;;;;;;;5.60;4.40;;;;;;;;;;4990388;28;20530;-69
2024/01/31 07:26:22;;;;;;;7.88;4.43;;;;;;;;;;4986287;28;20046;-69
2024/01/31 07:28:48;;;;;;;8.45;4.85;;;;;;;;;;4986600;28;20050;-69
2024/01/31 07:31:14;;;;;;;6.40;4.47;;;;;;;;;;4989375;28;20049;-69
2024/01/31 07:33:40;;;;;;;9.30;4.93;;;;;;;;;;5025060;28;20453;-69
2024/01/31 07:36:07;;;;;;;9.02;5.57;;;;;;;;;;4991365;28;20054;-69
2024/01/31 07:38:33;;;;;;;6.80;4.50;;;;;;;;;;5017486;28;20038;-69
2024/01/31 07:40:59;;;;;;;9.45;5.45;;;;;;;;;;4993430;28;20145;-69
2024/01/31 07:43:25;;;;;;;8.70;5.43;;;;;;;;;;4996252;28;20060;-69
2024/01/31 07:45:52;;;;;;;5.75;4.63;;;;;;;;;;4990026;28;20050;-69
2024/01/31 07:48:18;;;;;;;8.85;5.00;;;;;;;;;;4986349;28;20373;-69
2024/01/31 07:50:44;;;;;;;9.65;4.93;;;;;;;;;;5032302;28;20104;-69
2024/01/31 07:53:10;;;;;;;8.27;5.28;;;;;;;;;;5000717;28;20050;-68
2024/01/31 07:55:36;;;;;;;6.40;4.65;;;;;;;;;;4988972;28;20125;-68
2024/01/31 07:58:03;;;;;;;5.65;4.75;;;;;;;;;;4998076;28;20130;-69
2024/01/31 08:00:29;;;;;;;9.65;5.30;;;;;;;;;;4990658;28;20061;-69
2024/01/31 08:02:55;;;;;;;6.90;5.30;;;;;;;;;;4989652;28;20482;-69
2024/01/31 08:05:21;;;;;;;10.43;5.20;;;;;;;;;;4993364;28;20054;-68
2024/01/31 08:07:47;;;;;;;10.15;6.10;;;;;;;;;;4984933;28;20045;-68
2024/01/31 08:10:13;;;;;;;9.30;6.20;;;;;;;;;;4999209;28;20049;-69
2024/01/31 08:12:41;;;;;;;8.43;6.00;;;;;;;;;;4974066;28;20051;-69
2024/01/31 08:15:07;;;;;;;11.43;6.45;;;;;;;;;;4991667;28;20055;-69
2024/01/31 08:17:33;;;;;;;10.48;5.90;;;;;;;;;;5021131;28;20059;-69
2024/01/31 08:19:59;;;;;;;7.22;5.90;;;;;;;;;;4983441;28;20383;-69
2024/01/31 08:22:25;;;;;;;11.30;6.40;;;;;;;;;;4977128;28;20052;-69
2024/01/31 08:24:51;;;;;;;11.07;7.22;;;;;;;;;;5004161;28;20046;-69
2024/01/31 08:27:20;;;;;;;10.25;7.95;;;;;;;;;;4989727;28;20490;-70
2024/01/31 08:29:46;;;;;;;7.13;5.63;;;;;;;;;;4988005;28;20494;-69
2024/01/31 08:32:12;;;;;;;9.20;6.53;;;;;;;;;;4988815;28;20097;-69
2024/01/31 08:34:38;;;;;;;10.15;7.47;;;;;;;;;;4986792;28;20085;-69
2024/01/31 08:37:04;;;;;;;7.35;6.18;;;;;;;;;;4985111;28;20074;-69
2024/01/31 08:39:30;;;;;;;8.85;6.75;;;;;;;;;;4996598;28;20038;-69
2024/01/31 08:41:56;;;;;;;9.48;6.70;;;;;;;;;;4994454;28;20038;-69
2024/01/31 08:44:22;;;;;;;9.38;6.07;;;;;;;;;;4986554;28;20530;-69
2024/01/31 08:46:48;;;;;;;12.98;7.22;;;;;;;;;;4988265;28;20072;-69
2024/01/31 08:49:15;;;;;;;17.20;7.65;;;;;;;;;;4983841;28;20043;-69
2024/01/31 08:51:41;;;;;;;11.90;7.70;;;;;;;;;;4988670;28;20449;-69
2024/01/31 08:54:07;;;;;;;15.68;9.07;;;;;;;;;;4994339;28;20084;-69
2024/01/31 08:56:36;;;;;;;13.48;8.35;;;;;;;;;;4980097;28;20076;-69
2024/01/31 08:59:02;;;;;;;13.75;9.05;;;;;;;;;;4986317;28;20038;-69
2024/01/31 09:01:28;;;;;;;11.85;7.93;;;;;;;;;;4989681;28;20109;-68
2024/01/31 09:03:55;;;;;;;11.75;7.50;;;;;;;;;;5022699;28;20470;-69
2024/01/31 09:06:21;;;;;;;11.10;7.47;;;;;;;;;;4981278;28;20129;-69
2024/01/31 09:08:48;;;;;;;10.45;7.50;;;;;;;;;;4987808;28;20511;-69
2024/01/31 09:11:14;;;;;;;8.98;7.10;;;;;;;;;;5017463;28;20494;-69
2024/01/31 09:13:41;;;;;;;9.73;7.40;;;;;;;;;;5018760;28;20054;-69
2024/01/31 09:16:08;;;;;;;7.47;5.97;;;;;;;;;;5022273;28;20553;-69
2024/01/31 09:18:34;;;;;;;10.00;7.53;;;;;;;;;;4985643;28;20125;-69
2024/01/31 09:21:00;;;;;;;9.38;6.97;;;;;;;;;;4987356;28;20057;-69
2024/01/31 09:23:26;;;;;;;9.73;7.70;;;;;;;;;;4985692;28;20096;-70
2024/01/31 09:25:52;;;;;;;7.57;6.38;;;;;;;;;;4988124;28;20047;-69
2024/01/31 09:28:19;;;;;;;8.80;6.78;;;;;;;;;;4983503;28;20449;-69
2024/01/31 09:30:46;;;;;;;10.35;8.10;;;;;;;;;;4978003;28;20046;-69
2024/01/31 09:33:12;;;;;;;9.93;6.72;;;;;;;;;;4986726;28;20096;-69
2024/01/31 09:35:39;;;;;;;9.52;6.82;;;;;;;;;;4987486;28;20034;-69
2024/01/31 09:38:05;;;;;;;11.82;7.60;;;;;;;;;;4987280;28;20451;-69
2024/01/31 09:40:31;;;;;;;8.50;6.60;;;;;;;;;;4983187;28;20050;-69
2024/01/31 09:42:57;;;;;;;8.02;6.43;;;;;;;;;;4984581;28;20043;-69
2024/01/31 09:45:27;;;;;;;9.13;6.57;;;;;;;;;;4989278;28;20569;-69
2024/01/31 09:47:57;;;;;;;9.40;6.65;;;;;;;;;;4986676;28;20050;-69
2024/01/31 09:50:23;;;;;;;9.00;6.88;;;;;;;;;;4988279;28;20054;-70
2024/01/31 09:52:54;;;;;;;10.00;7.13;;;;;;;;;;4984652;28;20053;-69
2024/01/31 09:55:23;;;;;;;9.05;7.15;;;;;;;;;;4987325;28;20047;-70
2024/01/31 09:57:52;;;;;;;8.85;6.28;;;;;;;;;;4984427;28;20054;-69
2024/01/31 10:00:18;;;;;;;8.57;5.93;;;;;;;;;;4987874;28;20405;-70
2024/01/31 10:02:48;;;;;;;7.50;5.70;;;;;;;;;;4987540;28;20531;-69
2024/01/31 10:05:15;;;;;;;8.60;6.30;;;;;;;;;;4986479;28;20471;-70
2024/01/31 10:07:41;;;;;;;11.07;6.65;;;;;;;;;;5020118;28;20092;-70
2024/01/31 10:10:07;;;;;;;8.50;6.20;;;;;;;;;;4985880;28;20137;-69
2024/01/31 10:12:33;;;;;;;9.68;6.25;;;;;;;;;;4985869;28;20065;-70
2024/01/31 10:14:59;;;;;;;7.03;5.72;;;;;;;;;;4988608;28;20050;-70
2024/01/31 10:17:25;;;;;;;7.00;5.50;;;;;;;;;;4984169;28;20475;-70
2024/01/31 10:19:51;;;;;;;7.95;6.22;;;;;;;;;;4985007;28;20479;-69
2024/01/31 10:22:17;;;;;;;9.30;6.90;;;;;;;;;;4985764;28;20044;-70
2024/01/31 10:24:49;;;;;;;10.77;7.05;;;;;;;;;;4987374;28;20046;-69
2024/01/31 10:27:17;;;;;;;10.18;7.05;;;;;;;;;;4986171;28;20046;-69
2024/01/31 10:29:43;;;;;;;11.38;7.18;;;;;;;;;;5019996;28;20100;-69
2024/01/31 10:32:09;;;;;;;11.05;7.70;;;;;;;;;;4982926;28;20047;-69
2024/01/31 10:34:35;;;;;;;10.73;7.50;;;;;;;;;;4986940;28;20070;-69
2024/01/31 10:37:02;;;;;;;12.07;7.55;;;;;;;;;;4987491;28;20056;-70
2024/01/31 10:39:28;;;;;;;12.77;7.82;;;;;;;;;;4986563;28;20105;-70
2024/01/31 10:41:55;;;;;;;10.23;7.60;;;;;;;;;;4993599;28;20085;-69
2024/01/31 10:44:22;;;;;;;11.05;8.00;;;;;;;;;;4991040;28;20141;-70
2024/01/31 10:46:48;;;;;;;11.70;7.97;;;;;;;;;;4983734;28;20042;-69
2024/01/31 10:49:18;;;;;;;13.25;7.93;;;;;;;;;;4986883;28;20446;-69
2024/01/31 10:51:47;;;;;;;10.88;7.75;;;;;;;;;;4987816;28;20042;-69
2024/01/31 10:54:13;;;;;;;9.40;6.93;;;;;;;;;;4991859;28;20050;-69
2024/01/31 10:56:40;;;;;;;9.82;6.75;;;;;;;;;;4986647;28;20077;-70
2024/01/31 10:59:09;;;;;;;8.32;6.20;;;;;;;;;;4987214;28;20081;-69
2024/01/31 11:01:38;;;;;;;10.57;5.82;;;;;;;;;;4989055;28;20092;-69
2024/01/31 11:04:10;;;;;;;9.98;6.05;;;;;;;;;;4989844;28;20042;-69
2024/01/31 11:06:40;;;;;;;12.73;5.93;;;;;;;;;;4991163;28;20495;-69
2024/01/31 11:09:06;;;;;;;8.75;6.60;;;;;;;;;;4984370;28;20054;-70
2024/01/31 11:11:33;;;;;;;9.63;7.10;;;;;;;;;;4985138;28;20050;-70
2024/01/31 11:14:14;;;;;;;9.85;6.55;;;;;;;;;;4992195;28;20054;-69
2024/01/31 11:16:41;;;;;;;8.20;5.80;;;;;;;;;;4988285;28;20055;-69
2024/01/31 11:19:09;;;;;;;10.82;7.20;;;;;;;;;;4990008;28;20132;-69
2024/01/31 11:21:38;;;;;;;8.73;6.60;;;;;;;;;;4985878;28;20058;-70
2024/01/31 11:24:04;;;;;;;10.73;6.43;;;;;;;;;;4990647;28;20042;-70
2024/01/31 11:26:34;;;;;;;9.38;6.32;;;;;;;;;;4988006;28;20557;-69
2024/01/31 11:29:03;;;;;;;8.48;5.65;;;;;;;;;;4985485;28;20049;-69
2024/01/31 11:31:30;;;;;;;12.18;6.75;;;;;;;;;;4989199;28;20065;-69
2024/01/31 11:33:57;;;;;;;9.20;6.38;;;;;;;;;;4989368;28;20042;-70
2024/01/31 11:36:24;;;;;;;8.60;6.30;;;;;;;;;;4987651;28;20125;-70
2024/01/31 11:38:50;;;;;;;9.57;6.07;;;;;;;;;;4987745;28;20501;-70
2024/01/31 11:41:16;;;;;;;10.18;6.18;;;;;;;;;;4985749;28;20423;-70
2024/01/31 11:43:42;;;;;;;10.48;6.72;;;;;;;;;;5023836;28;20077;-69
2024/01/31 11:46:08;;;;;;;8.32;6.13;;;;;;;;;;4987043;28;20066;-69
2024/01/31 11:48:35;;;;;;;8.25;5.85;;;;;;;;;;4987779;28;20042;-70
2024/01/31 11:51:03;;;;;;;10.27;6.32;;;;;;;;;;4983886;28;20084;-69
2024/01/31 11:53:29;;;;;;;9.48;6.05;;;;;;;;;;4987139;28;20054;-69
2024/01/31 11:55:55;;;;;;;10.07;6.18;;;;;;;;;;4988448;28;20042;-69
2024/01/31 11:58:21;;;;;;;10.05;6.07;;;;;;;;;;4986589;28;20078;-69
2024/01/31 12:00:48;;;;;;;12.80;6.00;;;;;;;;;;4987220;28;20089;-69
2024/01/31 12:03:14;;;;;;;8.82;6.47;;;;;;;;;;5018148;28;20057;-69
2024/01/31 12:05:40;;;;;;;13.77;6.32;;;;;;;;;;5020128;28;20125;-69
2024/01/31 12:08:06;;;;;;;9.70;6.35;;;;;;;;;;4985927;28;20121;-69
2024/01/31 12:10:32;;;;;;;9.77;6.43;;;;;;;;;;4983937;28;20069;-69
2024/01/31 12:13:00;;;;;;;9.13;6.47;;;;;;;;;;4984968;28;20553;-68
2024/01/31 12:15:26;;;;;;;8.98;5.97;;;;;;;;;;4985389;28;20066;-69
2024/01/31 12:17:53;;;;;;;12.43;6.60;;;;;;;;;;4983199;28;20034;-69
2024/01/31 12:20:20;;;;;;;8.43;6.38;;;;;;;;;;4985907;28;20093;-69
2024/01/31 12:22:46;;;;;;;7.78;6.07;;;;;;;;;;4988599;28;20053;-68
2024/01/31 12:25:12;;;;;;;11.25;6.78;;;;;;;;;;4985012;28;20046;-68
2024/01/31 12:27:38;;;;;;;11.30;7.45;;;;;;;;;;4988958;28;20046;-68
2024/01/31 12:30:05;;;;;;;14.30;8.73;;;;;;;;;;4983605;28;20058;-68
2024/01/31 12:32:31;;;;;;;12.65;7.97;;;;;;;;;;4987975;28;20054;-69
2024/01/31 12:34:57;;;;;;;12.20;8.15;;;;;;;;;;4984758;28;20169;-68
2024/01/31 12:37:23;;;;;;;13.02;7.78;;;;;;;;;;4988427;28;20041;-68
2024/01/31 12:39:52;;;;;;;12.88;9.50;;;;;;;;;;4989739;28;20405;-68
2024/01/31 12:42:18;;;;;;;14.25;9.48;;;;;;;;;;4988287;28;20049;-68
2024/01/31 12:44:44;;;;;;;16.92;10.70;;;;;;;;;;4988626;28;20042;-68
2024/01/31 12:47:11;;;;;;;15.25;10.02;;;;;;;;;;4982779;28;20401;-69
2024/01/31 12:49:39;;;;;;;15.13;10.05;;;;;;;;;;4985600;28;20082;-68
2024/01/31 12:52:08;;;;;;;16.75;10.98;;;;;;;;;;5017954;28;20065;-68
2024/01/31 12:54:34;;;;;;;16.05;10.85;;;;;;;;;;4987192;28;20046;-68
2024/01/31 12:57:00;;;;;;;16.80;11.13;;;;;;;;;;4989377;28;20193;-69
2024/01/31 12:59:27;;;;;;;15.55;10.68;;;;;;;;;;4987465;28;20054;-69
2024/01/31 13:01:53;;;;;;;18.73;11.55;;;;;;;;;;4985045;28;20042;-70
2024/01/31 13:04:21;;;;;;;12.23;8.90;;;;;;;;;;4987142;28;20124;-70
2024/01/31 13:06:47;;;;;;;16.38;9.63;;;;;;;;;;4994746;28;20053;-69
2024/01/31 13:09:14;;;;;;;14.85;9.82;;;;;;;;;;5021715;28;20046;-69
2024/01/31 13:11:40;;;;;;;13.48;7.25;;;;;;;;;;4972990;28;20050;-69
2024/01/31 13:14:06;;;;;;;13.52;8.70;;;;;;;;;;4970188;28;20129;-69
2024/01/31 13:16:38;;;;;;;12.40;8.38;;;;;;;;;;4972217;28;20054;-69
2024/01/31 13:19:04;;;;;;;12.48;8.82;;;;;;;;;;4978968;28;20046;-69
2024/01/31 13:21:31;;;;;;;12.82;9.63;;;;;;;;;;5012328;28;20454;-69
2024/01/31 13:23:57;;;;;;;11.95;8.23;;;;;;;;;;5005733;28;20108;-69
2024/01/31 13:26:23;;;;;;;11.93;8.45;;;;;;;;;;4986296;28;20058;-69
2024/01/31 13:28:50;;;;;;;10.43;7.40;;;;;;;;;;4989632;28;20050;-70
2024/01/31 13:31:16;;;;;;;11.52;7.57;;;;;;;;;;4994293;28;20046;-69
2024/01/31 13:33:46;;;;;;;10.63;8.10;;;;;;;;;;4983856;28;20054;-69
2024/01/31 13:36:12;;;;;;;13.27;8.00;;;;;;;;;;4985238;28;20109;-69
2024/01/31 13:38:38;;;;;;;10.60;7.03;;;;;;;;;;4992059;28;20042;-68
2024/01/31 13:41:04;;;;;;;11.13;6.72;;;;;;;;;;4990006;28;20050;-69
2024/01/31 13:43:30;;;;;;;15.13;7.25;;;;;;;;;;4986332;28;20053;-69
2024/01/31 13:45:56;;;;;;;10.40;7.45;;;;;;;;;;4983684;28;20050;-69
2024/01/31 13:48:22;;;;;;;8.88;6.97;;;;;;;;;;4990020;28;20102;-69
2024/01/31 13:50:48;;;;;;;10.68;8.00;;;;;;;;;;4988062;28;20931;-69
2024/01/31 13:53:14;;;;;;;10.80;8.35;;;;;;;;;;4982669;28;20101;-69
2024/01/31 13:55:40;;;;;;;12.30;7.75;;;;;;;;;;4982229;28;20042;-68
2024/01/31 13:58:09;;;;;;;9.73;6.55;;;;;;;;;;4986086;28;20042;-69
2024/01/31 14:00:35;;;;;;;10.02;7.70;;;;;;;;;;4989463;28;20050;-69
2024/01/31 14:03:01;;;;;;;12.57;7.20;;;;;;;;;;4987891;28;20050;-69
2024/01/31 14:05:27;;;;;;;11.05;6.63;;;;;;;;;;4986771;28;20150;-69
2024/01/31 14:07:54;;;;;;;11.52;6.78;;;;;;;;;;4989674;28;20124;-69
2024/01/31 14:10:20;;;;;;;9.40;6.60;;;;;;;;;;4986213;28;20069;-69
2024/01/31 14:12:46;;;;;;;8.23;6.57;;;;;;;;;;4984048;28;20288;-69
2024/01/31 14:15:12;;;;;;;8.90;6.53;;;;;;;;;;4987269;28;20066;-69
2024/01/31 14:17:38;;;;;;;7.75;5.80;;;;;;;;;;4990222;28;20047;-68
2024/01/31 14:20:04;;;;;;;10.70;6.47;;;;;;;;;;4991762;28;20054;-69
2024/01/31 14:22:30;;;;;;;8.77;5.88;;;;;;;;;;4987657;28;20055;-69
2024/01/31 14:24:56;;;;;;;9.13;5.88;;;;;;;;;;4990844;28;20408;-69
2024/01/31 14:27:22;;;;;;;6.53;4.70;;;;;;;;;;4988982;28;20045;-70
2024/01/31 14:29:48;;;;;;;10.27;5.55;;;;;;;;;;4994056;28;20046;-69
2024/01/31 14:32:14;;;;;;;9.82;5.75;;;;;;;;;;4987080;28;20567;-69
2024/01/31 14:34:41;;;;;;;10.95;6.00;;;;;;;;;;4991931;28;20043;-69